createdAt,value
2018-09-30T00:03:33.296Z,101339.48
2018-09-30T00:06:32.280Z,101337.36
2018-09-30T00:09:23.382Z,101334.84
2018-09-30T00:20:56.226Z,101321.80
2018-09-30T00:41:45.537Z,101300.02
2018-09-30T00:47:45.442Z,101283.69
2018-09-30T00:50:19.740Z,101280.88
2018-09-30T00:55:39.911Z,101288.77
2018-09-30T01:01:05.495Z,101284.00
2018-09-30T01:12:57.730Z,101267.25
2018-09-30T01:15:46.081Z,101261.56
2018-09-30T01:18:36.640Z,101251.95
2018-09-30T01:21:37.172Z,101251.08
2018-09-30T01:24:28.891Z,101251.55
2018-09-30T01:27:16.945Z,101247.70
2018-09-30T01:30:06.122Z,101239.24
2018-09-30T01:32:39.444Z,101244.72
2018-09-30T01:38:35.268Z,101239.07
2018-09-30T01:41:08.859Z,101238.23
2018-09-30T01:44:01.960Z,101234.95
2018-09-30T01:46:36.304Z,101229.03
2018-09-30T01:55:12.350Z,101230.91
2018-09-30T01:58:01.663Z,101225.47
2018-09-30T02:00:56.166Z,101224.01
2018-09-30T02:03:43.238Z,101219.89
2018-09-30T02:06:33.800Z,101222.33
2018-09-30T02:09:22.470Z,101226.45
2018-09-30T02:12:13.536Z,101223.17
2018-09-30T02:21:11.215Z,101211.47
2018-09-30T02:24:01.961Z,101206.32
2018-09-30T02:30:06.858Z,101201.38
2018-09-30T02:33:12.490Z,101196.20
2018-09-30T02:36:06.271Z,101198.44
2018-09-30T02:42:08.751Z,101190.41
2018-09-30T02:45:03.759Z,101180.75
2018-09-30T02:59:37.316Z,101165.53
2018-09-30T03:02:16.205Z,101163.02
2018-09-30T03:04:54.132Z,101160.44
2018-09-30T03:07:44.094Z,101154.42
2018-09-30T03:10:39.776Z,101154.91
2018-09-30T03:13:27.578Z,101157.99
2018-09-30T03:16:14.602Z,101153.69
2018-09-30T03:19:09.583Z,101153.70
2018-09-30T03:21:56.788Z,101148.28
2018-09-30T03:24:44.755Z,101142.22
2018-09-30T03:27:33.022Z,101138.94
2018-09-30T03:30:21.306Z,101141.20
2018-09-30T03:33:17.074Z,101135.08
2018-09-30T03:39:10.413Z,101129.42
2018-09-30T03:41:57.791Z,101132.91
2018-09-30T03:44:45.359Z,101129.75
2018-09-30T03:47:40.314Z,101129.43
2018-09-30T03:50:09.040Z,101121.69
2018-09-30T03:52:56.151Z,101120.92
2018-09-30T03:55:43.544Z,101125.83
2018-09-30T03:58:18.043Z,101121.45
2018-09-30T04:00:46.817Z,101115.78
2018-09-30T04:03:29.085Z,101116.23
2018-09-30T04:06:16.663Z,101111.72
2018-09-30T04:12:17.339Z,101108.66
2018-09-30T04:15:06.599Z,101099.64
2018-09-30T04:17:54.016Z,101100.67
2018-09-30T04:20:31.550Z,101097.22
2018-09-30T04:26:25.190Z,101084.25
2018-09-30T04:29:09.316Z,101078.94
2018-09-30T04:31:57.791Z,101088.24
2018-09-30T04:34:52.883Z,101084.50
2018-09-30T04:37:37.249Z,101076.34
2018-09-30T04:40:08.738Z,101076.84
2018-09-30T04:45:44.933Z,101072.34
2018-09-30T04:51:13.088Z,101076.26
2018-09-30T04:53:41.697Z,101072.02
2018-09-30T04:56:37.703Z,101074.31
2018-09-30T04:59:24.789Z,101067.84
2018-09-30T05:02:12.252Z,101070.91
2018-09-30T05:04:59.471Z,101074.37
2018-09-30T05:11:00.609Z,101072.10
2018-09-30T05:13:50.206Z,101077.31
2018-09-30T05:16:45.176Z,101072.48
2018-09-30T05:19:14.865Z,101075.50
2018-09-30T05:21:43.490Z,101069.33
2018-09-30T05:27:22.875Z,101077.92
2018-09-30T05:30:10.395Z,101081.36
2018-09-30T05:41:59.087Z,101073.65
2018-09-30T05:53:46.989Z,101069.75
2018-09-30T05:56:36.278Z,101054.82
2018-09-30T05:59:25.513Z,101058.12
2018-09-30T06:04:57.805Z,101062.68
2018-09-30T06:13:28.182Z,101063.33
2018-09-30T06:19:03.177Z,101058.48
2018-09-30T06:27:25.849Z,101054.96
2018-09-30T06:30:13.795Z,101055.53
2018-09-30T06:35:34.933Z,101060.33
2018-09-30T06:47:49.592Z,101064.28
2018-09-30T06:50:37.290Z,101063.61
2018-09-30T06:53:12.204Z,101061.99
2018-09-30T06:55:59.205Z,101052.54
2018-09-30T06:58:29.267Z,101054.41
2018-09-30T07:00:58.316Z,101057.36
2018-09-30T07:03:27.100Z,101053.52
2018-09-30T07:06:15.014Z,101055.42
2018-09-30T07:09:02.144Z,101048.55
2018-09-30T07:11:49.392Z,101046.10
2018-09-30T07:14:36.959Z,101049.17
2018-09-30T07:17:24.073Z,101040.25
2018-09-30T07:20:11.148Z,101052.63
2018-09-30T07:26:06.226Z,101053.21
2018-09-30T07:28:54.843Z,101053.27
2018-09-30T07:34:50.000Z,101045.19
2018-09-30T07:37:37.171Z,101046.78
2018-09-30T07:40:25.091Z,101043.41
2018-09-30T07:43:13.174Z,101042.31
2018-09-30T07:46:00.628Z,101039.37
2018-09-30T07:48:48.611Z,101041.91
2018-09-30T07:51:17.813Z,101040.17
2018-09-30T07:54:05.503Z,101039.09
2018-09-30T07:56:52.819Z,101037.45
2018-09-30T07:59:30.581Z,101035.30
2018-09-30T08:02:17.837Z,101028.06
2018-09-30T08:05:05.411Z,101024.66
2018-09-30T08:07:52.478Z,101025.38
2018-09-30T08:10:39.780Z,101016.13
2018-09-30T08:13:27.098Z,101021.19
2018-09-30T08:16:14.643Z,101013.78
2018-09-30T08:18:49.274Z,101015.02
2018-09-30T08:21:36.534Z,101017.13
2018-09-30T08:24:24.152Z,101012.87
2018-09-30T08:29:59.206Z,101008.38
2018-09-30T08:32:46.530Z,101011.81
2018-09-30T08:35:33.752Z,101019.95
2018-09-30T08:38:11.551Z,101009.67
2018-09-30T08:44:05.014Z,101002.58
2018-09-30T08:53:05.014Z,100996.44
2018-09-30T08:55:33.736Z,100991.02
2018-09-30T09:01:27.729Z,100983.89
2018-09-30T09:04:15.050Z,100970.33
2018-09-30T09:07:03.932Z,100974.07
2018-09-30T09:09:51.550Z,100971.92
2018-09-30T09:12:20.444Z,100959.89
2018-09-30T09:15:08.911Z,100960.66
2018-09-30T09:17:56.397Z,100950.67
2018-09-30T09:20:44.886Z,100944.96
2018-09-30T09:23:32.258Z,100934.33
2018-09-30T09:26:19.656Z,100924.85
2018-09-30T09:32:14.940Z,100916.80
2018-09-30T09:44:23.966Z,100909.33
2018-09-30T09:47:11.709Z,100900.16
2018-09-30T09:49:58.850Z,100897.84
2018-09-30T09:55:35.360Z,100887.19
2018-09-30T10:01:29.088Z,100884.91
2018-09-30T10:07:24.482Z,100875.38
2018-09-30T10:09:53.133Z,100879.16
2018-09-30T10:16:02.094Z,100870.58
2018-09-30T10:18:49.181Z,100861.89
2018-09-30T10:24:27.849Z,100854.41
2018-09-30T10:27:15.052Z,100848.25
2018-09-30T10:29:43.716Z,100844.95
2018-09-30T10:32:31.214Z,100830.97
2018-09-30T10:41:30.498Z,100823.41
2018-09-30T10:47:25.218Z,100805.56
2018-09-30T11:02:38.044Z,100799.83
2018-09-30T11:05:26.036Z,100803.67
2018-09-30T11:08:21.219Z,100793.74
2018-09-30T11:11:11.100Z,100789.30
2018-09-30T11:23:03.395Z,100780.11
2018-09-30T11:25:50.268Z,100777.15
2018-09-30T11:31:30.778Z,100758.36
2018-09-30T11:34:18.351Z,100753.58
2018-09-30T11:37:06.137Z,100749.52
2018-09-30T11:39:56.964Z,100747.59
2018-09-30T11:42:41.159Z,100735.21
2018-09-30T11:54:25.967Z,100719.84
2018-09-30T12:03:51.975Z,100704.19
2018-09-30T12:06:39.822Z,100703.80
2018-09-30T12:15:23.167Z,100691.70
2018-09-30T12:18:05.358Z,100687.87
2018-09-30T12:20:49.882Z,100685.95
2018-09-30T12:23:38.094Z,100679.92
2018-09-30T12:26:06.838Z,100676.75
2018-09-30T12:28:35.917Z,100663.31
2018-09-30T12:31:23.064Z,100656.64
2018-09-30T12:34:13.454Z,100652.81
2018-09-30T12:37:01.571Z,100643.75
2018-09-30T12:39:49.209Z,100633.13
2018-09-30T12:45:40.052Z,100618.18
2018-09-30T12:48:27.557Z,100615.42
2018-09-30T12:51:19.020Z,100608.36
2018-09-30T12:54:06.755Z,100605.25
2018-09-30T12:56:38.793Z,100601.06
2018-09-30T12:59:26.400Z,100596.25
2018-09-30T13:02:14.848Z,100580.26
2018-09-30T13:11:02.204Z,100573.05
2018-09-30T13:13:52.171Z,100571.80
2018-09-30T13:16:41.817Z,100565.26
2018-09-30T13:19:29.165Z,100559.10
2018-09-30T13:22:19.659Z,100563.80
2018-09-30T13:24:59.790Z,100564.38
2018-09-30T13:27:47.413Z,100563.69
2018-09-30T13:30:19.083Z,100550.46
2018-09-30T13:33:07.941Z,100549.34
2018-09-30T13:51:45.904Z,100525.55
2018-09-30T13:54:24.090Z,100518.59
2018-09-30T13:57:11.626Z,100513.37
2018-09-30T13:59:58.987Z,100507.10
2018-09-30T14:08:59.539Z,100491.25
2018-09-30T14:11:51.668Z,100496.91
2018-09-30T14:14:39.542Z,100493.47
2018-09-30T14:26:48.781Z,100481.75
2018-09-30T14:29:38.240Z,100478.06
2018-09-30T14:32:05.440Z,100473.45
2018-09-30T14:37:59.701Z,100473.83
2018-09-30T14:40:47.394Z,100469.67
2018-09-30T14:43:35.066Z,100463.20
2018-09-30T14:49:36.909Z,100459.64
2018-09-30T14:52:24.568Z,100458.45
2018-09-30T14:55:12.134Z,100447.34
2018-09-30T14:58:03.598Z,100442.41
2018-09-30T15:00:51.389Z,100435.44
2018-09-30T15:03:38.939Z,100434.16
2018-09-30T15:06:26.515Z,100438.85
2018-09-30T15:15:36.222Z,100428.05
2018-09-30T15:18:26.439Z,100430.61
2018-09-30T15:21:14.580Z,100425.12
2018-09-30T15:24:02.329Z,100414.57
2018-09-30T15:26:50.989Z,100412.73
2018-09-30T15:29:38.279Z,100416.87
2018-09-30T15:32:10.812Z,100413.28
2018-09-30T15:35:00.298Z,100417.22
2018-09-30T15:37:47.672Z,100408.91
2018-09-30T15:43:41.668Z,100402.62
2018-09-30T15:46:10.597Z,100398.27
2018-09-30T15:48:58.320Z,100400.47
2018-09-30T15:51:45.936Z,100401.26
2018-09-30T16:03:27.313Z,100409.45
2018-09-30T16:06:15.605Z,100406.14
2018-09-30T16:09:10.632Z,100402.57
2018-09-30T16:11:57.664Z,100400.30
2018-09-30T16:14:52.825Z,100399.80
2018-09-30T16:17:39.909Z,100400.34
2018-09-30T16:23:15.706Z,100395.09
2018-09-30T16:26:06.872Z,100392.41
2018-09-30T16:28:54.276Z,100387.83
2018-09-30T16:31:41.084Z,100390.42
2018-09-30T16:34:28.124Z,100389.34
2018-09-30T16:37:15.585Z,100388.26
2018-09-30T16:39:44.367Z,100383.80
2018-09-30T16:42:32.864Z,100374.39
2018-09-30T16:45:20.248Z,100376.72
2018-09-30T16:47:50.584Z,100373.61
2018-09-30T16:53:45.172Z,100367.30
2018-09-30T16:56:32.124Z,100371.16
2018-09-30T16:59:19.505Z,100368.65
2018-09-30T17:02:14.718Z,100367.55
2018-09-30T17:05:02.284Z,100374.94
2018-09-30T17:07:50.898Z,100372.31
2018-09-30T17:10:39.725Z,100369.61
2018-09-30T17:16:14.801Z,100380.51
2018-09-30T17:28:27.943Z,100371.30
2018-09-30T17:34:04.486Z,100371.66
2018-09-30T17:37:00.758Z,100366.95
2018-09-30T17:39:48.078Z,100366.08
2018-09-30T17:42:36.707Z,100366.56
2018-09-30T17:45:23.844Z,100370.44
2018-09-30T17:47:56.310Z,100370.59
2018-09-30T17:50:41.724Z,100372.50
2018-09-30T17:53:29.864Z,100370.52
2018-09-30T17:56:01.746Z,100379.05
2018-09-30T17:58:57.012Z,100372.28
2018-09-30T18:04:41.107Z,100357.28
2018-09-30T18:07:28.658Z,100357.52
2018-09-30T18:10:15.972Z,100355.22
2018-09-30T18:13:06.718Z,100359.00
2018-09-30T18:15:51.608Z,100350.66
2018-09-30T18:18:39.146Z,100344.16
2018-09-30T18:21:10.974Z,100353.61
2018-09-30T18:23:58.326Z,100350.33
2018-09-30T18:26:45.586Z,100344.81
2018-09-30T18:29:33.047Z,100352.36
2018-09-30T18:32:01.971Z,100352.10
2018-09-30T18:34:49.453Z,100347.12
2018-09-30T18:37:36.739Z,100345.72
2018-09-30T18:40:24.033Z,100341.08
2018-09-30T18:43:11.529Z,100339.42
2018-09-30T18:45:58.784Z,100347.97
2018-09-30T18:48:45.501Z,100345.95
2018-09-30T18:51:33.260Z,100340.20
2018-09-30T18:54:20.420Z,100346.58
2018-09-30T18:57:08.071Z,100354.42
2018-09-30T18:59:55.191Z,100346.86
2018-09-30T19:02:42.033Z,100340.41
2018-09-30T19:05:29.742Z,100340.15
2018-09-30T19:08:18.197Z,100347.38
2018-09-30T19:11:05.023Z,100342.92
2018-09-30T19:13:52.333Z,100341.73
2018-09-30T19:16:40.082Z,100338.02
2018-09-30T19:19:27.460Z,100327.55
2018-09-30T19:22:15.953Z,100326.67
2018-09-30T19:53:23.750Z,100314.50
2018-09-30T20:24:39.615Z,100296.12
2018-09-30T20:27:27.201Z,100288.45
2018-09-30T20:30:15.170Z,100290.02
2018-09-30T20:33:02.561Z,100293.89
2018-09-30T20:35:50.288Z,100289.38
2018-09-30T20:41:43.907Z,100283.35
2018-09-30T20:44:32.174Z,100282.27
2018-09-30T20:47:21.466Z,100274.56
2018-09-30T20:50:08.820Z,100273.82
2018-09-30T20:52:56.416Z,100275.48
2018-09-30T21:17:34.385Z,100258.13
2018-09-30T21:26:35.342Z,100254.55
2018-09-30T21:32:29.169Z,100244.66
2018-09-30T21:35:19.695Z,100245.56
2018-09-30T21:38:11.643Z,100241.14
2018-09-30T21:41:10.533Z,100239.25
2018-09-30T21:43:55.771Z,100239.11
2018-09-30T21:46:43.252Z,100231.91
2018-09-30T21:49:38.561Z,100233.61
2018-09-30T21:52:26.245Z,100227.76
2018-09-30T21:54:55.273Z,100225.16
2018-09-30T21:57:42.779Z,100227.06
2018-09-30T22:00:20.177Z,100225.70
2018-09-30T22:03:08.250Z,100226.75
2018-09-30T22:05:58.155Z,100218.61
2018-09-30T22:11:54.029Z,100212.77
2018-09-30T22:14:43.337Z,100205.48
2018-09-30T22:17:30.866Z,100195.41
2018-09-30T22:23:27.767Z,100193.02
2018-09-30T22:28:56.574Z,100192.38
2018-09-30T22:31:33.967Z,100188.05
2018-09-30T22:34:21.339Z,100193.89
2018-09-30T22:37:13.862Z,100196.98
2018-09-30T22:40:00.742Z,100205.63
2018-09-30T22:42:47.963Z,100202.91
2018-09-30T22:45:35.532Z,100204.84
2018-09-30T22:48:22.555Z,100206.61
2018-09-30T22:50:57.168Z,100195.55
2018-09-30T22:53:54.987Z,100199.71
2018-09-30T22:56:29.528Z,100197.06
2018-09-30T22:59:06.278Z,100200.86
2018-09-30T23:01:35.018Z,100193.92
2018-09-30T23:04:03.649Z,100197.28
2018-09-30T23:06:32.387Z,100200.34
2018-09-30T23:09:16.464Z,100187.53
2018-09-30T23:11:48.023Z,100197.66
2018-09-30T23:14:35.407Z,100190.95
2018-09-30T23:17:04.964Z,100197.75
2018-09-30T23:19:33.670Z,100194.39
2018-09-30T23:22:02.622Z,100187.83
2018-09-30T23:24:57.826Z,100187.80
2018-09-30T23:27:36.609Z,100188.97
2018-09-30T23:30:23.869Z,100194.64
2018-09-30T23:33:10.897Z,100190.77
2018-09-30T23:35:39.974Z,100191.20
2018-09-30T23:38:08.516Z,100189.06
2018-09-30T23:40:55.696Z,100195.62
2018-09-30T23:43:25.199Z,100193.95
2018-09-30T23:46:13.490Z,100191.58
2018-09-30T23:49:00.664Z,100185.80
2018-09-30T23:51:48.153Z,100185.31
2018-09-30T23:54:35.313Z,100185.92
2018-09-30T23:57:22.360Z,100182.05
